This is the latest recevied weather packets stored in our database for station/object F5NTS. If no packets are shown the sender has not sent any weather packets the latest 10 day(s).
| Time | Temp. | Humidity | Pressure | Rain* | Wind** | Luminosity | Snow |
|---|---|---|---|---|---|---|---|
| 1777630805 | 22.22° C | 32% | 1019.3 hPa | 0 mm | - | - | - |
| 1777627504 | 20° C | 34% | 1019.5 hPa | 0 mm | - | - | - |
| 1777626305 | 18.89° C | 35% | 1019.7 hPa | 0 mm | - | - | - |
| 1777625104 | 17.78° C | 35% | 1019.6 hPa | 0 mm | - | - | - |
| 1777616104 | 7.78° C | 72% | 1019.4 hPa | 0 mm | - | - | - |
| 1777610404 | 0.56° C | 72% | 1018.8 hPa | 0 mm | - | - | - |
| 1777609505 | 0.56° C | 71% | 1018.9 hPa | 0 mm | - | - | - |
| 1777607704 | 0.56° C | 70% | 1018.9 hPa | 0 mm | - | - | - |
| 1777606204 | 1.11° C | 69% | 1019 hPa | 0 mm | - | - | - |
| 1777603504 | 1.11° C | 66% | 1019 hPa | 0 mm | - | - | - |
| 1777600804 | 1.67° C | 63% | 1019.2 hPa | 0 mm | - | - | - |
| 1777597805 | 2.22° C | 59% | 1019.4 hPa | 0 mm | - | - | - |
| 1777597504 | 2.22° C | 58% | 1019.4 hPa | 0 mm | - | - | - |
| 1777595404 | 2.78° C | 55% | 1019.4 hPa | 0 mm | - | - | - |
| 1777591204 | 6.67° C | 47% | 1019.4 hPa | 0 mm | - | - | - |
| 1777588505 | 6.67° C | 50% | 1019.5 hPa | 0 mm | - | - | - |
| 1777587005 | 5.56° C | 54% | 1019.4 hPa | 0 mm | - | - | - |
| 1777584004 | 6.67° C | 49% | 1019.7 hPa | 0 mm | - | - | - |
| 1777581905 | 7.78° C | 44% | 1019.6 hPa | 0 mm | - | - | - |
| 1777581604 | 8.33° C | 43% | 1019.4 hPa | 0 mm | - | - | - |
| 1777580404 | 8.89° C | 39% | 1019.2 hPa | 0 mm | - | - | - |
| 1777577404 | 13.33° C | 28% | 1018.7 hPa | 0 mm | - | - | - |
| 1777575905 | 15° C | 25% | 1018 hPa | 0 mm | - | - | - |
| 1777574104 | 17.78° C | 25% | 1017.4 hPa | 0 mm | - | - | - |
| 1777572904 | 19.44° C | 25% | 1017.5 hPa | 0 mm | - | - | - |
* Rain latest hour (hover to see other rain measurements)
** Current wind speed in m/s (hover to see current wind gust speed)